createdAt,value
2023-04-03T00:01:46.484Z,2.89
2023-04-03T00:06:49.352Z,2.83
2023-04-03T00:11:52.155Z,2.75
2023-04-03T00:16:55.042Z,2.71
2023-04-03T00:21:57.937Z,2.69
2023-04-03T00:27:01.082Z,2.71
2023-04-03T00:32:04.009Z,2.71
2023-04-03T00:37:07.121Z,2.70
2023-04-03T00:42:09.931Z,2.68
2023-04-03T00:47:17.176Z,2.71
2023-04-03T00:52:24.396Z,2.70
2023-04-03T00:57:28.682Z,2.63
2023-04-03T01:02:31.829Z,2.58
2023-04-03T01:07:38.211Z,2.55
2023-04-03T01:12:46.767Z,2.50
2023-04-03T01:17:57.492Z,2.47
2023-04-03T01:23:34.030Z,2.43
2023-04-03T01:28:37.423Z,2.46
2023-04-03T01:33:40.397Z,2.45
2023-04-03T01:38:43.312Z,2.43
2023-04-03T01:43:46.131Z,2.40
2023-04-03T01:48:49.584Z,2.32
2023-04-03T01:53:52.657Z,2.31
2023-04-03T01:58:55.526Z,2.28
2023-04-03T02:03:58.410Z,2.24
2023-04-03T02:09:01.328Z,2.20
2023-04-03T02:14:04.308Z,2.25
2023-04-03T02:19:07.308Z,2.28
2023-04-03T02:24:10.310Z,2.32
2023-04-03T02:29:13.578Z,2.34
2023-04-03T02:34:16.434Z,2.35
2023-04-03T02:39:19.369Z,2.37
2023-04-03T02:44:22.258Z,2.40
2023-04-03T02:49:25.184Z,2.46
2023-04-03T02:54:31.714Z,2.48
2023-04-03T02:59:34.577Z,2.47
2023-04-03T03:04:37.727Z,2.45
2023-04-03T03:09:40.570Z,2.37
2023-04-03T03:14:44.522Z,2.34
2023-04-03T03:19:47.224Z,2.28
2023-04-03T03:24:50.396Z,2.20
2023-04-03T03:29:53.233Z,2.05
2023-04-03T03:34:56.187Z,1.95
2023-04-03T03:39:58.995Z,1.88
2023-04-03T03:45:01.800Z,1.89
2023-04-03T03:50:05.354Z,1.86
2023-04-03T03:55:09.048Z,1.76
2023-04-03T04:00:12.574Z,1.63
2023-04-03T04:05:15.437Z,1.55
2023-04-03T04:10:18.442Z,1.52
2023-04-03T04:15:22.701Z,1.52
2023-04-03T04:20:25.677Z,1.54
2023-04-03T04:25:28.503Z,1.50
2023-04-03T04:30:31.348Z,1.45
2023-04-03T04:35:35.723Z,1.37
2023-04-03T04:40:39.103Z,1.35
2023-04-03T04:45:43.108Z,1.37
2023-04-03T04:50:45.816Z,1.30
2023-04-03T04:55:49.015Z,1.24
2023-04-03T05:01:00.122Z,1.22
2023-04-03T05:06:03.689Z,1.22
2023-04-03T05:11:06.711Z,1.26
2023-04-03T05:16:09.593Z,1.21
2023-04-03T05:21:12.456Z,1.12
2023-04-03T05:26:15.247Z,1.10
2023-04-03T05:31:18.125Z,1.09
2023-04-03T05:36:21.028Z,1.07
2023-04-03T05:41:24.791Z,1.06
2023-04-03T05:46:27.816Z,1.04
2023-04-03T05:51:36.624Z,1.04
2023-04-03T05:56:39.584Z,1.01
2023-04-03T06:01:42.791Z,0.96
2023-04-03T06:06:53.142Z,0.91
2023-04-03T06:11:57.049Z,0.88
2023-04-03T06:17:00.656Z,0.92
2023-04-03T06:22:04.020Z,0.96
2023-04-03T06:27:07.200Z,0.91
2023-04-03T06:32:10.156Z,0.88
2023-04-03T06:37:19.153Z,0.84
2023-04-03T06:42:22.375Z,0.89
2023-04-03T06:47:25.505Z,1.01
2023-04-03T06:52:28.469Z,1.10
2023-04-03T06:57:31.427Z,1.12
2023-04-03T07:02:34.383Z,1.12
2023-04-03T07:07:38.782Z,1.16
2023-04-03T07:12:41.654Z,1.20
2023-04-03T07:17:47.565Z,1.28
2023-04-03T07:22:50.375Z,1.38
2023-04-03T07:27:55.510Z,1.46
2023-04-03T07:32:58.426Z,1.46
2023-04-03T07:38:01.362Z,1.53
2023-04-03T07:43:05.283Z,1.58
2023-04-03T07:48:08.152Z,1.74
2023-04-03T07:53:11.552Z,1.86
2023-04-03T07:58:19.571Z,1.89
2023-04-03T08:03:22.665Z,1.94
2023-04-03T08:08:25.631Z,2.02
2023-04-03T08:13:29.006Z,2.02
2023-04-03T08:18:32.762Z,2.13
2023-04-03T08:23:35.926Z,2.23
2023-04-03T08:28:39.226Z,2.28
2023-04-03T08:33:42.544Z,2.37
2023-04-03T08:38:45.563Z,2.41
2023-04-03T08:44:18.561Z,2.55
2023-04-03T08:49:55.857Z,2.63
2023-04-03T08:55:02.935Z,2.68
2023-04-03T09:00:22.056Z,2.67
2023-04-03T09:05:54.530Z,2.73
2023-04-03T09:11:37.539Z,2.84
2023-04-03T09:17:15.934Z,3.05
2023-04-03T09:22:25.463Z,3.16
2023-04-03T09:27:28.413Z,3.17
2023-04-03T09:32:35.963Z,3.18
2023-04-03T09:37:41.239Z,3.14
2023-04-03T09:42:48.839Z,3.19
2023-04-03T09:48:17.269Z,3.30
2023-04-03T09:53:46.773Z,3.42
2023-04-03T09:58:53.553Z,3.58
2023-04-03T10:04:13.100Z,3.62
2023-04-03T10:09:29.530Z,3.62
2023-04-03T10:14:38.749Z,3.57
2023-04-03T10:19:48.046Z,3.54
2023-04-03T10:25:01.578Z,3.59
2023-04-03T10:30:41.176Z,3.58
2023-04-03T10:36:10.459Z,3.68
2023-04-03T10:41:47.997Z,3.74
2023-04-03T10:47:21.761Z,3.73
2023-04-03T10:52:48.897Z,3.80
2023-04-03T10:57:51.918Z,3.90
2023-04-03T11:03:04.402Z,4.08
2023-04-03T11:08:31.521Z,4.15
2023-04-03T11:13:42.120Z,4.27
2023-04-03T11:18:55.600Z,4.46
2023-04-03T11:24:00.035Z,4.54
2023-04-03T11:29:15.812Z,4.55
2023-04-03T11:34:42.720Z,4.54
2023-04-03T11:39:57.824Z,4.69
2023-04-03T11:45:28.311Z,4.90
2023-04-03T11:50:45.866Z,4.95
2023-04-03T11:55:52.243Z,5.01
2023-04-03T12:01:02.247Z,5.04
2023-04-03T12:06:28.381Z,5.00
2023-04-03T12:11:33.809Z,4.92
2023-04-03T12:16:39.714Z,4.85
2023-04-03T12:21:52.974Z,4.80
2023-04-03T12:27:01.773Z,4.78
2023-04-03T12:32:08.389Z,4.74
2023-04-03T12:37:58.629Z,4.82
2023-04-03T12:43:43.666Z,5.03
2023-04-03T12:48:46.480Z,5.02
2023-04-03T12:53:52.571Z,4.92
2023-04-03T12:59:17.303Z,4.79
2023-04-03T13:04:20.305Z,4.67
2023-04-03T13:09:27.513Z,4.66
2023-04-03T13:14:31.488Z,4.74
2023-04-03T13:19:34.330Z,4.73
2023-04-03T13:24:39.922Z,4.68
2023-04-03T13:29:43.078Z,4.59
2023-04-03T13:34:47.547Z,4.63
2023-04-03T13:45:31.013Z,4.72
2023-04-03T13:50:34.103Z,4.76
2023-04-03T13:55:52.918Z,4.75
2023-04-03T14:01:21.605Z,4.66
2023-04-03T14:06:25.800Z,4.57
2023-04-03T14:11:32.247Z,4.50
2023-04-03T14:16:40.618Z,4.45
2023-04-03T14:21:43.561Z,4.42
2023-04-03T14:26:47.722Z,4.45
2023-04-03T14:31:57.838Z,4.44
2023-04-03T14:37:13.286Z,4.48
2023-04-03T14:42:26.698Z,4.43
2023-04-03T14:47:32.425Z,4.40
2023-04-03T14:52:37.162Z,4.37
2023-04-03T14:57:40.797Z,4.39
2023-04-03T15:02:44.388Z,4.39
2023-04-03T15:07:55.790Z,4.36
2023-04-03T15:12:58.823Z,4.27
2023-04-03T15:18:01.726Z,4.24
2023-04-03T15:23:05.951Z,4.26
2023-04-03T15:28:31.524Z,4.26
2023-04-03T15:33:35.646Z,4.27
2023-04-03T15:38:39.227Z,4.28
2023-04-03T15:43:42.140Z,4.31
2023-04-03T15:48:45.765Z,4.31
2023-04-03T15:53:48.642Z,4.32
2023-04-03T15:58:51.485Z,4.33
2023-04-03T16:03:55.029Z,4.32
2023-04-03T16:08:59.046Z,4.32
2023-04-03T16:14:02.063Z,4.33
2023-04-03T16:19:06.329Z,4.30
2023-04-03T16:24:09.888Z,4.32
2023-04-03T16:29:12.706Z,4.31
2023-04-03T16:34:16.429Z,4.30
2023-04-03T16:39:19.830Z,4.25
2023-04-03T16:44:22.781Z,4.23
2023-04-03T16:49:26.160Z,4.21
2023-04-03T16:54:29.388Z,4.15
2023-04-03T16:59:32.206Z,4.15
2023-04-03T17:04:35.221Z,4.14
2023-04-03T17:09:39.016Z,4.13
2023-04-03T17:14:41.903Z,4.14
2023-04-03T17:19:45.451Z,4.14
2023-04-03T17:24:48.632Z,4.11
2023-04-03T17:29:51.520Z,4.09
2023-04-03T17:34:54.352Z,4.08
2023-04-03T17:39:57.219Z,4.07
2023-04-03T17:45:01.193Z,4.07
2023-04-03T17:50:04.657Z,4.06
2023-04-03T17:55:07.978Z,4.06
2023-04-03T18:00:11.793Z,4.06
2023-04-03T18:05:14.676Z,3.97
2023-04-03T18:10:17.674Z,3.91
2023-04-03T18:15:20.954Z,3.87
2023-04-03T18:20:24.613Z,3.82
2023-04-03T18:25:27.551Z,3.83
2023-04-03T18:30:30.543Z,3.85
2023-04-03T18:35:33.475Z,3.83
2023-04-03T18:40:36.913Z,3.77
2023-04-03T18:45:40.142Z,3.71
2023-04-03T18:50:43.709Z,3.66
2023-04-03T18:55:46.887Z,3.62
2023-04-03T19:00:49.818Z,3.58
2023-04-03T19:05:52.690Z,3.56
2023-04-03T19:10:55.489Z,3.53
2023-04-03T19:15:59.966Z,3.53
2023-04-03T19:21:03.999Z,3.50
2023-04-03T19:26:08.908Z,3.46
2023-04-03T19:31:18.386Z,3.43
2023-04-03T19:36:21.648Z,3.43
2023-04-03T19:41:27.454Z,3.44
2023-04-03T19:46:31.107Z,3.43
2023-04-03T19:51:34.014Z,3.43
2023-04-03T19:56:36.815Z,3.42
2023-04-03T20:01:40.495Z,3.40
2023-04-03T20:06:43.350Z,3.36
2023-04-03T20:11:48.935Z,3.35
2023-04-03T20:16:51.753Z,3.34
2023-04-03T20:21:55.047Z,3.31
2023-04-03T20:26:58.042Z,3.27
2023-04-03T20:32:01.321Z,3.24
2023-04-03T20:37:04.776Z,3.22
2023-04-03T20:42:07.601Z,3.19
2023-04-03T20:47:10.586Z,3.13
2023-04-03T20:52:13.412Z,3.07
2023-04-03T20:57:16.288Z,3.04
2023-04-03T21:02:19.229Z,3.04
2023-04-03T21:08:18.492Z,3.02
2023-04-03T21:14:18.222Z,2.95
2023-04-03T21:19:21.671Z,2.87
2023-04-03T21:24:24.538Z,2.82
2023-04-03T21:29:27.433Z,2.79
2023-04-03T21:34:32.078Z,2.79
2023-04-03T21:39:34.995Z,2.80
2023-04-03T21:44:38.157Z,2.81
2023-04-03T21:49:41.647Z,2.78
2023-04-03T21:54:44.976Z,2.74
2023-04-03T21:59:47.904Z,2.74
2023-04-03T22:04:50.764Z,2.71
2023-04-03T22:09:53.605Z,2.70
2023-04-03T22:14:56.619Z,2.65
2023-04-03T22:19:59.490Z,2.60
2023-04-03T22:25:03.560Z,2.57
2023-04-03T22:30:07.609Z,2.55
2023-04-03T22:35:10.444Z,2.51
2023-04-03T22:40:13.748Z,2.46
2023-04-03T22:45:16.623Z,2.43
2023-04-03T22:50:19.472Z,2.37
2023-04-03T22:55:24.522Z,2.34
2023-04-03T23:00:28.148Z,2.30
2023-04-03T23:05:31.165Z,2.29
2023-04-03T23:10:33.962Z,2.25
2023-04-03T23:15:36.858Z,2.22
2023-04-03T23:20:39.812Z,2.17
2023-04-03T23:25:42.758Z,2.15
2023-04-03T23:30:46.440Z,2.09
2023-04-03T23:35:49.464Z,2.06
2023-04-03T23:40:52.343Z,2.04
2023-04-03T23:45:55.234Z,2.01
2023-04-03T23:50:58.049Z,1.99
2023-04-03T23:56:00.879Z,1.99
